Time;durP1;ratioP1;P1;durP2;ratioP2;P2;SDS_P1;SDS_P2;PMS_P1;PMS_P2;Temp;Humidity;BMP_temperature;BMP_pressure;BME280_temperature;BME280_humidity;BME280_pressure;Samples;Min_cycle;Max_cycle;Signal;HPM_P1;HPM_P2
2022/02/01 00:02:23;;;;;;;14.82;5.18;;;3.10;99.90;;;;;;5017537;28;20188;-78
2022/02/01 00:04:59;;;;;;;27.95;6.68;;;3.10;99.90;;;;;;5018513;28;20196;-79
2022/02/01 00:07:37;;;;;;;16.08;6.22;;;3.10;99.90;;;;;;5017169;28;20191;-81
2022/02/01 00:10:11;;;;;;;16.85;7.80;;;3.10;99.90;;;;;;5017991;28;20349;-81
2022/02/01 00:12:49;;;;;;;17.85;7.05;;;3.00;99.90;;;;;;5023314;28;20196;-79
2022/02/01 00:15:43;;;;;;;12.45;5.90;;;3.00;99.90;;;;;;5033759;28;20192;-79
2022/02/01 00:18:25;;;;;;;12.60;6.00;;;3.00;99.90;;;;;;5040983;28;20236;-77
2022/02/01 00:34:41;;;;;;;16.55;6.38;;;3.00;99.90;;;;;;5019574;28;20188;-78
2022/02/01 00:37:14;;;;;;;18.00;8.75;;;2.90;99.90;;;;;;5019279;28;20530;-81
2022/02/01 00:39:43;;;;;;;17.00;7.32;;;2.90;99.90;;;;;;5017524;28;20290;-80
2022/02/01 00:42:10;;;;;;;16.15;7.10;;;2.90;99.90;;;;;;5019612;28;20219;-80
2022/02/01 00:44:37;;;;;;;22.20;6.45;;;2.90;99.90;;;;;;5018900;28;20200;-79
2022/02/01 00:47:04;;;;;;;15.05;7.28;;;2.90;99.90;;;;;;5019404;28;20212;-80
2022/02/01 00:49:34;;;;;;;18.77;7.80;;;2.90;99.90;;;;;;5019757;28;20244;-80
2022/02/01 00:52:01;;;;;;;15.02;5.72;;;2.90;99.90;;;;;;5020872;28;20279;-79
2022/02/01 00:54:27;;;;;;;35.78;7.88;;;2.80;99.90;;;;;;5022781;28;20212;-80
2022/02/01 00:56:54;;;;;;;25.85;7.20;;;2.80;99.90;;;;;;5020424;28;20212;-81
2022/02/01 00:59:21;;;;;;;14.48;6.43;;;2.80;99.90;;;;;;5018561;28;20251;-81
2022/02/01 01:01:47;;;;;;;22.77;8.60;;;2.70;99.90;;;;;;5019074;28;20228;-81
2022/02/01 01:04:14;;;;;;;14.38;6.30;;;2.70;99.90;;;;;;5018761;28;20585;-81
2022/02/01 01:06:42;;;;;;;15.80;6.50;;;2.60;99.90;;;;;;5018037;28;20239;-80
2022/02/01 01:09:08;;;;;;;16.10;6.78;;;2.70;99.90;;;;;;5018372;28;20232;-80
2022/02/01 01:11:36;;;;;;;20.70;8.88;;;2.60;99.90;;;;;;5018410;28;20251;-80
2022/02/01 01:14:44;;;;;;;13.98;7.20;;;2.60;99.90;;;;;;5019008;28;20208;-80
2022/02/01 01:44:53;;;;;;;21.98;8.55;;;2.50;99.90;;;;;;5038403;28;20191;-79
2022/02/01 01:55:32;;;;;;;16.17;8.45;;;2.70;99.90;;;;;;5027952;28;20717;-79
2022/02/01 01:57:58;;;;;;;26.75;9.90;;;2.90;99.90;;;;;;5029845;28;20208;-79
2022/02/01 02:00:39;;;;;;;21.98;9.40;;;2.60;99.90;;;;;;5029806;28;20258;-79
2022/02/01 02:03:06;;;;;;;19.17;8.68;;;2.70;99.90;;;;;;5020751;28;20686;-79
2022/02/01 02:05:33;;;;;;;22.17;9.15;;;2.70;99.90;;;;;;5024149;28;20590;-79
2022/02/01 02:07:59;;;;;;;20.50;8.65;;;2.60;99.90;;;;;;5029830;28;20204;-79
2022/02/01 02:10:30;;;;;;;22.83;9.82;;;2.70;99.90;;;;;;5030424;28;20274;-78
2022/02/01 02:13:04;;;;;;;22.45;10.05;;;2.60;99.90;;;;;;5029137;28;20189;-80
2022/02/01 02:15:38;;;;;;;21.48;9.00;;;2.60;99.90;;;;;;5020916;28;20198;-81
2022/02/01 02:18:05;;;;;;;24.38;9.77;;;2.70;99.90;;;;;;5021086;28;20674;-80
2022/02/01 02:20:40;;;;;;;16.35;9.00;;;2.60;99.90;;;;;;5018771;28;20270;-79
2022/02/01 02:23:09;;;;;;;24.35;10.70;;;2.70;99.90;;;;;;5018771;28;20188;-80
2022/02/01 02:25:37;;;;;;;23.73;9.32;;;2.70;99.90;;;;;;5018844;28;20208;-80
2022/02/01 02:28:05;;;;;;;25.35;9.68;;;2.70;99.90;;;;;;5024442;28;20212;-78
2022/02/01 02:30:33;;;;;;;17.52;9.30;;;2.70;99.90;;;;;;5022426;28;20247;-80
2022/02/01 02:33:03;;;;;;;23.50;9.35;;;2.70;99.90;;;;;;5029377;28;20231;-80
2022/02/01 02:35:34;;;;;;;16.23;8.68;;;2.70;99.90;;;;;;5031302;28;20256;-78
2022/02/01 02:38:04;;;;;;;21.40;10.00;;;2.70;99.90;;;;;;5028108;28;20200;-80
2022/02/01 02:40:45;;;;;;;18.88;8.50;;;2.60;99.90;;;;;;5025487;28;20228;-79
2022/02/01 02:45:55;;;;;;;23.92;9.82;;;2.70;99.90;;;;;;5017858;28;20330;-81
2022/02/01 02:48:22;;;;;;;17.17;7.47;;;2.70;99.90;;;;;;5018324;28;20204;-79
2022/02/01 02:50:49;;;;;;;16.77;9.05;;;2.80;99.90;;;;;;5018649;28;20220;-79
2022/02/01 02:53:15;;;;;;;23.25;9.85;;;2.70;99.90;;;;;;5018691;28;20231;-79
2022/02/01 02:55:43;;;;;;;21.00;10.30;;;2.70;99.90;;;;;;5017870;28;20209;-80
2022/02/01 02:58:10;;;;;;;19.98;9.07;;;2.70;99.90;;;;;;5018641;28;20208;-79
2022/02/01 03:00:38;;;;;;;17.83;9.52;;;2.90;99.90;;;;;;5017682;28;20615;-81
2022/02/01 03:03:04;;;;;;;21.10;9.50;;;2.50;99.90;;;;;;5019884;28;20264;-80
2022/02/01 03:05:31;;;;;;;22.50;10.30;;;2.80;99.90;;;;;;5026414;28;20204;-78
2022/02/01 03:07:57;;;;;;;19.98;8.70;;;2.80;99.90;;;;;;5037863;28;20195;-78
2022/02/01 03:10:24;;;;;;;22.05;9.95;;;2.80;99.90;;;;;;5026722;28;20249;-79
2022/02/01 03:13:08;;;;;;;28.95;10.02;;;2.90;99.90;;;;;;5024162;28;20192;-79
2022/02/01 03:15:43;;;;;;;20.90;8.70;;;3.00;99.90;;;;;;5019068;28;20551;-79
2022/02/01 03:20:55;;;;;;;19.08;9.40;;;2.90;99.90;;;;;;5016254;28;20231;-80
2022/02/01 03:23:21;;;;;;;28.10;9.80;;;2.90;99.90;;;;;;5015795;28;20301;-80
2022/02/01 03:25:48;;;;;;;19.38;9.07;;;2.90;99.90;;;;;;5016639;28;20565;-80
2022/02/01 03:28:16;;;;;;;14.00;9.07;;;3.00;99.90;;;;;;5016329;28;20266;-79
2022/02/01 03:30:42;;;;;;;22.67;9.27;;;2.90;99.90;;;;;;5050909;22;20305;-81
2022/02/01 03:33:09;;;;;;;23.05;9.55;;;2.90;99.90;;;;;;5045465;28;20215;-81
2022/02/01 03:35:36;;;;;;;17.17;8.82;;;2.90;99.90;;;;;;5045762;28;20210;-82
2022/02/01 03:38:02;;;;;;;16.17;10.20;;;2.90;99.90;;;;;;5051404;28;20234;-78
2022/02/01 03:40:29;;;;;;;32.53;9.02;;;2.90;99.90;;;;;;5054487;28;20246;-79
2022/02/01 03:42:56;;;;;;;17.38;9.95;;;2.70;99.90;;;;;;5052265;28;20214;-81
2022/02/01 03:45:24;;;;;;;18.80;9.45;;;2.80;99.90;;;;;;5045554;28;20270;-81
2022/02/01 03:47:51;;;;;;;18.63;10.63;;;1.90;99.90;;;;;;5042411;28;20218;-83
2022/02/01 03:50:17;;;;;;;25.67;10.00;;;2.90;99.90;;;;;;5040298;28;20690;-81
2022/02/01 03:52:44;;;;;;;23.80;11.02;;;2.80;99.90;;;;;;5043897;28;20263;-78
2022/02/01 03:55:11;;;;;;;23.08;11.73;;;2.80;99.90;;;;;;5051528;28;20204;-80
2022/02/01 03:57:37;;;;;;;21.83;10.30;;;2.80;99.90;;;;;;5050340;28;20210;-78
2022/02/01 04:00:06;;;;;;;25.20;11.00;;;2.90;99.90;;;;;;5049318;28;20239;-80
2022/02/01 04:02:34;;;;;;;22.05;10.35;;;2.90;99.90;;;;;;5049502;28;20200;-80
2022/02/01 04:05:01;;;;;;;26.48;11.80;;;2.90;99.90;;;;;;5047549;28;20207;-81
2022/02/01 04:07:27;;;;;;;22.25;11.60;;;2.80;99.90;;;;;;5048322;28;20579;-80
2022/02/01 04:09:54;;;;;;;23.05;12.65;;;2.80;99.90;;;;;;5045462;28;20228;-81
2022/02/01 04:12:21;;;;;;;18.27;11.27;;;2.80;99.90;;;;;;5042620;28;20277;-80
2022/02/01 04:14:47;;;;;;;21.10;11.25;;;2.80;99.90;;;;;;5047050;28;20203;-80
2022/02/01 04:17:14;;;;;;;28.77;12.55;;;2.80;99.90;;;;;;5045035;28;20231;-81
2022/02/01 04:19:43;;;;;;;25.10;10.95;;;2.80;99.90;;;;;;5042532;28;20287;-80
2022/02/01 04:22:11;;;;;;;27.00;14.02;;;2.80;99.90;;;;;;5043367;28;20242;-80
2022/02/01 04:24:40;;;;;;;27.20;12.32;;;2.80;99.90;;;;;;5047499;28;20206;-80
2022/02/01 04:27:08;;;;;;;22.85;11.35;;;2.90;99.90;;;;;;5047879;28;20207;-82
2022/02/01 04:29:38;;;;;;;27.45;12.90;;;2.90;99.90;;;;;;5044035;28;20231;-81
2022/02/01 04:32:06;;;;;;;22.30;11.20;;;2.80;99.90;;;;;;5043407;28;20186;-82
2022/02/01 04:34:32;;;;;;;19.90;10.57;;;2.80;99.90;;;;;;5042045;28;20576;-81
2022/02/01 04:37:00;;;;;;;22.95;10.35;;;2.80;99.90;;;;;;5045184;28;20671;-81
2022/02/01 04:39:27;;;;;;;19.83;10.07;;;2.80;99.90;;;;;;5055683;28;20227;-81
2022/02/01 04:41:54;;;;;;;23.60;12.57;;;2.90;99.90;;;;;;5056736;28;20337;-79
2022/02/01 04:44:20;;;;;;;26.27;12.80;;;2.90;99.90;;;;;;5050716;28;20445;-81
2022/02/01 04:46:48;;;;;;;16.88;11.20;;;2.90;99.90;;;;;;5043149;28;20208;-83
2022/02/01 04:49:15;;;;;;;27.27;12.10;;;2.80;99.90;;;;;;5046874;28;20277;-81
2022/02/01 04:51:41;;;;;;;22.00;11.90;;;2.80;99.90;;;;;;5038554;28;20441;-82
2022/02/01 04:54:10;;;;;;;20.70;12.95;;;2.90;99.90;;;;;;5038465;28;20287;-80
2022/02/01 04:56:37;;;;;;;17.55;10.52;;;2.90;99.90;;;;;;5038779;28;20211;-82
2022/02/01 04:59:03;;;;;;;25.05;12.15;;;2.70;99.90;;;;;;5037449;28;20208;-81
2022/02/01 05:01:37;;;;;;;28.20;12.07;;;2.80;99.90;;;;;;5040956;28;20574;-82
2022/02/01 05:04:04;;;;;;;30.08;11.90;;;2.90;99.90;;;;;;5041391;28;20644;-81
2022/02/01 05:06:31;;;;;;;25.27;10.93;;;2.70;99.90;;;;;;5041832;28;20204;-83
2022/02/01 05:08:58;;;;;;;18.58;10.82;;;3.00;99.90;;;;;;5042168;28;20235;-82
2022/02/01 05:11:26;;;;;;;22.42;11.32;;;2.80;99.90;;;;;;5041446;28;20200;-82
2022/02/01 05:14:07;;;;;;;25.30;11.45;;;2.80;99.90;;;;;;5041722;28;20207;-81
2022/02/01 05:16:44;;;;;;;19.25;10.95;;;2.80;99.90;;;;;;5041832;28;20194;-81
2022/02/01 05:19:16;;;;;;;22.50;11.15;;;2.80;99.90;;;;;;5047756;28;20234;-79
2022/02/01 05:21:44;;;;;;;23.98;12.05;;;2.70;99.90;;;;;;5049061;28;20453;-79
2022/02/01 05:24:12;;;;;;;22.25;11.90;;;2.60;99.90;;;;;;5042539;28;20211;-81
2022/02/01 05:26:42;;;;;;;20.17;11.10;;;2.70;99.90;;;;;;5040069;28;20662;-81
2022/02/01 05:29:09;;;;;;;15.10;9.15;;;2.70;99.90;;;;;;5040699;28;20219;-83
2022/02/01 05:31:36;;;;;;;22.73;10.25;;;2.80;99.90;;;;;;5041344;28;20185;-82
2022/02/01 05:34:02;;;;;;;22.30;10.27;;;2.60;99.90;;;;;;5049057;28;20211;-79
2022/02/01 05:36:29;;;;;;;20.20;9.52;;;2.50;99.90;;;;;;5055123;28;20207;-80
2022/02/01 05:38:56;;;;;;;16.20;9.23;;;2.80;99.90;;;;;;5050055;28;20211;-82
2022/02/01 05:41:25;;;;;;;14.45;9.20;;;2.50;99.90;;;;;;5041181;28;20258;-83
2022/02/01 05:43:53;;;;;;;18.65;9.52;;;2.40;99.90;;;;;;5045645;28;20208;-82
2022/02/01 05:46:19;;;;;;;18.50;10.40;;;2.20;99.90;;;;;;5053129;28;20200;-79
2022/02/01 05:48:46;;;;;;;17.30;10.40;;;;;;;;;;5051044;28;20199;-78
2022/02/01 05:51:13;;;;;;;19.00;10.40;;;2.20;99.90;;;;;;5043373;28;20208;-82
2022/02/01 05:53:40;;;;;;;18.17;10.55;;;2.10;99.90;;;;;;5044759;28;20207;-81
2022/02/01 05:56:06;;;;;;;14.75;9.07;;;2.10;99.90;;;;;;5040988;28;20556;-81
2022/02/01 05:58:33;;;;;;;19.17;10.27;;;2.00;99.90;;;;;;5054561;28;20230;-79
2022/02/01 06:01:01;;;;;;;15.48;10.35;;;2.10;99.90;;;;;;5060131;28;20242;-78
2022/02/01 06:03:27;;;;;;;25.42;10.95;;;2.20;99.90;;;;;;5051157;28;20208;-78
2022/02/01 06:05:54;;;;;;;16.60;9.43;;;2.20;99.90;;;;;;5054467;28;20203;-78
2022/02/01 06:08:21;;;;;;;19.17;11.18;;;2.30;99.90;;;;;;5059814;28;20226;-78
2022/02/01 06:10:47;;;;;;;17.48;10.98;;;2.30;99.90;;;;;;5052848;28;20220;-78
2022/02/01 06:13:14;;;;;;;17.40;11.55;;;2.40;99.90;;;;;;5043446;28;20290;-80
2022/02/01 06:15:41;;;;;;;27.25;14.52;;;2.30;99.90;;;;;;5048533;28;20214;-79
2022/02/01 06:18:09;;;;;;;21.90;12.93;;;2.30;99.90;;;;;;5044813;28;20207;-81
2022/02/01 06:20:36;;;;;;;24.40;12.63;;;2.30;99.90;;;;;;5045550;28;20285;-82
2022/02/01 06:23:02;;;;;;;22.85;11.32;;;2.30;99.90;;;;;;5049356;28;20229;-83
2022/02/01 06:25:48;;;;;;;21.48;13.13;;;2.40;99.90;;;;;;5052602;28;20298;-82
2022/02/01 06:28:15;;;;;;;24.95;11.95;;;2.70;99.90;;;;;;5050607;28;20242;-81
2022/02/01 06:30:42;;;;;;;25.10;10.13;;;2.40;99.90;;;;;;5048575;28;20231;-82
2022/02/01 06:33:10;;;;;;;22.17;11.07;;;2.50;99.90;;;;;;5048212;28;20204;-82
2022/02/01 06:35:37;;;;;;;24.67;11.95;;;2.50;99.90;;;;;;5049023;28;20208;-83
2022/02/01 06:38:04;;;;;;;17.95;10.82;;;2.50;99.90;;;;;;5049374;28;20206;-82
2022/02/01 06:40:30;;;;;;;27.40;13.48;;;2.60;99.90;;;;;;5044967;28;20224;-84
2022/02/01 06:42:58;;;;;;;23.00;11.13;;;2.50;99.90;;;;;;5042488;28;20215;-83
2022/02/01 06:45:26;;;;;;;23.33;11.90;;;2.50;99.90;;;;;;5040945;28;20262;-83
2022/02/01 06:47:52;;;;;;;21.58;10.27;;;2.60;99.90;;;;;;5040849;28;20233;-82
2022/02/01 06:50:21;;;;;;;23.55;12.07;;;2.70;99.90;;;;;;5040782;28;20647;-82
2022/02/01 06:52:53;;;;;;;21.48;12.15;;;2.60;99.90;;;;;;5039837;28;20200;-82
2022/02/01 06:55:31;;;;;;;23.80;11.40;;;2.70;99.90;;;;;;5040628;28;20195;-82
2022/02/01 06:57:58;;;;;;;21.23;10.45;;;2.60;99.90;;;;;;5039742;28;20263;-82
2022/02/01 07:00:24;;;;;;;26.98;11.20;;;2.50;99.90;;;;;;5051445;28;20223;-79
2022/02/01 07:02:51;;;;;;;19.85;10.98;;;2.60;99.90;;;;;;5056248;28;20227;-79
2022/02/01 07:05:17;;;;;;;23.17;11.98;;;2.70;99.90;;;;;;5056092;28;20226;-79
2022/02/01 07:07:45;;;;;;;17.10;10.30;;;2.60;99.90;;;;;;5052989;28;20204;-79
2022/02/01 07:10:12;;;;;;;23.83;10.35;;;2.50;99.90;;;;;;5051320;28;20285;-79
2022/02/01 07:12:39;;;;;;;19.58;9.90;;;2.60;99.90;;;;;;5051960;28;20199;-79
2022/02/01 07:15:06;;;;;;;21.70;10.57;;;2.60;99.90;;;;;;5050934;28;20227;-79
2022/02/01 07:17:33;;;;;;;17.88;8.93;;;2.70;99.90;;;;;;5046701;28;20211;-81
2022/02/01 07:19:59;;;;;;;26.63;13.05;;;2.60;99.90;;;;;;5045608;28;20227;-80
2022/02/01 07:22:27;;;;;;;23.38;10.13;;;2.50;99.90;;;;;;5041465;28;20219;-83
2022/02/01 07:24:59;;;;;;;19.40;9.70;;;2.60;99.90;;;;;;5039789;28;20704;-81
2022/02/01 07:27:37;;;;;;;19.70;9.00;;;2.70;99.90;;;;;;5039458;28;20215;-81
2022/02/01 07:30:07;;;;;;;20.55;10.02;;;2.40;99.90;;;;;;5040811;28;20262;-80
2022/02/01 07:32:35;;;;;;;20.58;9.15;;;2.60;99.90;;;;;;5052412;28;20192;-79
2022/02/01 07:35:02;;;;;;;15.85;10.18;;;2.60;99.90;;;;;;5055938;28;20263;-79
2022/02/01 07:37:29;;;;;;;13.95;8.88;;;2.60;99.90;;;;;;5052461;28;20208;-81
2022/02/01 07:39:57;;;;;;;15.05;8.48;;;2.50;99.90;;;;;;5045769;28;20224;-82
2022/02/01 07:42:23;;;;;;;20.60;10.00;;;2.50;99.90;;;;;;5042875;28;20260;-81
2022/02/01 07:44:50;;;;;;;20.10;8.43;;;2.50;99.90;;;;;;5039930;28;20274;-82
2022/02/01 07:47:21;;;;;;;25.50;8.50;;;2.50;99.90;;;;;;5039220;28;20575;-81
2022/02/01 07:49:51;;;;;;;24.15;9.90;;;2.50;99.90;;;;;;5038354;28;20661;-80
2022/02/01 07:52:17;;;;;;;21.23;9.93;;;2.60;99.90;;;;;;5039764;28;20199;-82
2022/02/01 07:54:44;;;;;;;18.45;8.60;;;2.60;99.90;;;;;;5043721;28;20204;-82
2022/02/01 07:57:13;;;;;;;17.60;8.63;;;2.60;99.90;;;;;;5039529;28;20207;-81
2022/02/01 07:59:39;;;;;;;12.88;7.70;;;2.50;99.90;;;;;;5043078;28;20224;-80
2022/02/01 08:02:16;;;;;;;20.33;9.10;;;2.60;99.90;;;;;;5040479;28;20220;-81
2022/02/01 08:04:43;;;;;;;24.85;9.43;;;2.60;99.90;;;;;;5048803;28;20200;-80
2022/02/01 08:07:10;;;;;;;17.48;9.02;;;2.70;99.90;;;;;;5058117;28;20183;-80
2022/02/01 08:09:39;;;;;;;14.50;8.35;;;2.70;99.90;;;;;;5058142;28;20234;-78
2022/02/01 08:12:16;;;;;;;23.25;10.73;;;2.80;99.90;;;;;;5055999;28;20226;-79
2022/02/01 08:17:38;;;;;;;20.55;7.72;;;2.80;99.90;;;;;;4989038;28;20239;-79
2022/02/01 08:20:08;;;;;;;18.63;8.25;;;2.90;99.90;;;;;;5041912;28;20691;-81
2022/02/01 08:22:38;;;;;;;13.70;7.00;;;3.00;99.90;;;;;;5038429;28;20713;-81
2022/02/01 08:25:07;;;;;;;15.30;7.03;;;2.90;99.90;;;;;;5039514;28;20188;-79
2022/02/01 08:27:34;;;;;;;17.17;7.25;;;3.10;99.90;;;;;;5038951;28;20267;-81
2022/02/01 08:30:03;;;;;;;14.73;6.65;;;3.10;99.90;;;;;;5038560;28;20242;-82
2022/02/01 08:32:30;;;;;;;17.08;7.28;;;3.10;99.90;;;;;;5037890;28;20666;-82
2022/02/01 08:34:57;;;;;;;14.38;6.03;;;3.10;99.90;;;;;;5037601;28;20207;-82
2022/02/01 08:37:23;;;;;;;12.40;5.45;;;2.90;99.90;;;;;;5043435;28;20207;-81
2022/02/01 08:39:51;;;;;;;12.18;6.13;;;3.00;99.90;;;;;;5044293;28;20250;-83
2022/02/01 08:42:18;;;;;;;13.80;6.15;;;3.00;99.90;;;;;;5043441;28;20223;-81
2022/02/01 08:44:45;;;;;;;18.25;5.10;;;3.00;99.90;;;;;;5044467;28;20204;-82
2022/02/01 08:47:17;;;;;;;10.15;5.38;;;3.10;99.90;;;;;;5041237;28;20694;-81
2022/02/01 08:49:44;;;;;;;17.15;6.32;;;3.00;99.90;;;;;;5045052;28;20234;-82
2022/02/01 08:52:15;;;;;;;16.52;5.60;;;3.10;99.90;;;;;;5044082;28;20200;-82
2022/02/01 08:54:43;;;;;;;11.60;6.00;;;3.20;99.90;;;;;;5049771;28;20226;-79
2022/02/01 08:57:21;;;;;;;15.27;5.72;;;3.20;99.90;;;;;;5049878;28;20589;-79
2022/02/01 08:59:50;;;;;;;17.13;5.97;;;3.20;99.90;;;;;;5041807;28;20219;-82
2022/02/01 09:02:23;;;;;;;13.25;5.30;;;3.20;99.90;;;;;;5042104;28;20254;-82
2022/02/01 09:04:50;;;;;;;22.33;5.95;;;3.20;99.90;;;;;;5044551;28;20210;-83
2022/02/01 09:07:17;;;;;;;15.80;5.28;;;3.30;99.90;;;;;;5045951;28;20207;-81
2022/02/01 09:09:44;;;;;;;6.35;4.25;;;3.40;99.90;;;;;;5051545;28;20231;-83
2022/02/01 09:12:11;;;;;;;9.50;5.30;;;3.40;99.90;;;;;;5051318;28;20203;-82
2022/02/01 09:14:38;;;;;;;16.73;4.70;;;3.40;99.90;;;;;;5044320;28;20204;-81
2022/02/01 09:17:06;;;;;;;7.57;4.43;;;3.50;99.90;;;;;;5057036;28;20238;-80
2022/02/01 09:19:34;;;;;;;9.27;5.50;;;3.40;99.90;;;;;;5060903;28;20236;-81
2022/02/01 09:22:02;;;;;;;13.98;4.40;;;3.40;99.90;;;;;;5055379;28;20227;-79
2022/02/01 09:24:29;;;;;;;17.02;4.80;;;3.60;99.90;;;;;;5057278;28;20188;-79
2022/02/01 09:26:56;;;;;;;14.55;4.10;;;3.50;99.90;;;;;;5060949;28;20184;-80
2022/02/01 09:31:55;;;;;;;19.90;4.78;;;3.40;99.90;;;;;;5056035;28;20241;-81
2022/02/01 09:34:22;;;;;;;9.00;4.15;;;3.50;99.90;;;;;;5054296;28;20215;-81
2022/02/01 09:36:52;;;;;;;6.93;4.97;;;3.50;99.90;;;;;;5057854;28;20184;-81
2022/02/01 09:39:20;;;;;;;15.57;4.05;;;3.70;99.90;;;;;;5057954;28;20204;-79
2022/02/01 09:41:47;;;;;;;18.42;4.70;;;3.60;99.90;;;;;;5056406;28;20223;-80
2022/02/01 09:44:15;;;;;;;12.23;4.03;;;3.60;99.90;;;;;;5055697;28;20204;-80
2022/02/01 09:46:43;;;;;;;13.15;4.57;;;3.60;99.90;;;;;;5051683;28;20200;-81
2022/02/01 09:49:12;;;;;;;14.70;3.95;;;3.70;99.90;;;;;;5048985;28;20274;-80
2022/02/01 09:51:39;;;;;;;8.73;3.90;;;3.80;99.90;;;;;;5047633;28;20231;-82
2022/02/01 09:54:07;;;;;;;12.95;4.00;;;3.70;99.90;;;;;;5045672;28;20230;-81
2022/02/01 09:56:33;;;;;;;8.95;4.50;;;3.80;99.90;;;;;;5042756;28;20211;-82
2022/02/01 09:59:00;;;;;;;10.10;4.80;;;3.70;99.90;;;;;;5044642;28;20609;-81
2022/02/01 10:01:30;;;;;;;10.75;4.70;;;3.70;99.90;;;;;;5044199;28;20228;-81
2022/02/01 10:04:02;;;;;;;16.75;4.50;;;3.70;99.90;;;;;;5042652;28;20222;-81
2022/02/01 10:06:31;;;;;;;17.92;4.47;;;3.60;99.90;;;;;;5046185;28;20290;-81
2022/02/01 10:09:05;;;;;;;15.38;3.90;;;3.60;99.90;;;;;;5052798;28;20204;-81
2022/02/01 10:11:37;;;;;;;9.77;4.38;;;3.70;99.90;;;;;;5054996;28;20223;-80
2022/02/01 10:14:07;;;;;;;9.65;4.82;;;3.70;99.90;;;;;;5051165;28;20230;-80
2022/02/01 10:16:42;;;;;;;18.00;5.18;;;3.70;99.90;;;;;;5053278;28;20261;-80
2022/02/01 10:19:10;;;;;;;11.77;5.03;;;3.80;99.90;;;;;;5050930;28;20198;-80
2022/02/01 10:21:49;;;;;;;14.82;5.22;;;3.80;99.90;;;;;;5052845;28;20315;-81
2022/02/01 10:24:27;;;;;;;15.45;4.10;;;3.80;99.90;;;;;;5043689;28;20192;-82
2022/02/01 10:27:08;;;;;;;9.68;4.18;;;3.80;99.90;;;;;;5044096;28;20270;-82
2022/02/01 10:29:35;;;;;;;6.60;4.88;;;3.70;99.90;;;;;;5043230;28;20199;-81
2022/02/01 10:32:15;;;;;;;9.15;4.93;;;4.00;99.90;;;;;;5043263;28;20262;-80
2022/02/01 10:34:44;;;;;;;9.68;4.80;;;3.90;99.90;;;;;;5042302;28;20192;-82
2022/02/01 10:37:19;;;;;;;8.20;4.00;;;4.20;99.90;;;;;;5043155;28;20204;-81
2022/02/01 10:39:49;;;;;;;9.07;3.90;;;4.00;99.90;;;;;;5042868;28;20231;-82
2022/02/01 10:42:17;;;;;;;9.70;4.55;;;3.90;99.90;;;;;;5043726;28;20270;-81
2022/02/01 10:44:47;;;;;;;11.15;4.05;;;4.10;99.90;;;;;;5041747;28;20213;-81
2022/02/01 10:47:16;;;;;;;12.82;6.07;;;4.00;99.90;;;;;;5041283;28;20208;-81
2022/02/01 10:49:43;;;;;;;14.50;5.72;;;3.90;99.90;;;;;;5042579;28;20266;-82
2022/02/01 10:52:12;;;;;;;16.65;4.35;;;3.90;99.90;;;;;;5041977;28;20216;-81
2022/02/01 10:54:41;;;;;;;11.40;4.95;;;4.10;99.90;;;;;;5040839;28;20261;-81
2022/02/01 10:57:10;;;;;;;19.85;4.88;;;4.10;99.90;;;;;;5041036;28;20227;-81
2022/02/01 10:59:39;;;;;;;19.17;3.90;;;4.40;99.90;;;;;;5042363;28;20609;-81
2022/02/01 11:02:07;;;;;;;12.40;4.22;;;4.30;99.90;;;;;;5044239;28;20243;-82
2022/02/01 11:04:36;;;;;;;11.10;4.18;;;4.20;99.90;;;;;;5042620;28;20208;-83
2022/02/01 11:07:03;;;;;;;7.47;4.38;;;4.30;99.90;;;;;;5041020;28;20671;-82
2022/02/01 11:09:33;;;;;;;16.00;3.50;;;4.30;99.90;;;;;;5041899;28;20282;-82
2022/02/01 11:12:06;;;;;;;12.50;4.75;;;4.30;99.90;;;;;;5041802;28;20188;-82
2022/02/01 11:14:41;;;;;;;9.85;3.85;;;4.40;99.90;;;;;;5042923;28;20188;-80
2022/02/01 11:17:10;;;;;;;20.52;5.22;;;4.30;99.90;;;;;;5051553;28;20203;-82
2022/02/01 11:19:51;;;;;;;9.90;5.72;;;4.10;99.90;;;;;;5045598;28;20203;-81
2022/02/01 11:22:20;;;;;;;9.98;4.03;;;4.30;99.90;;;;;;5043605;28;20319;-81
2022/02/01 11:24:56;;;;;;;13.98;5.15;;;4.30;99.90;;;;;;5043550;28;20209;-81
2022/02/01 11:27:46;;;;;;;16.70;6.07;;;4.30;99.90;;;;;;5043814;28;20278;-81
2022/02/01 11:30:15;;;;;;;7.28;4.47;;;4.40;99.90;;;;;;5041202;28;20235;-81
2022/02/01 11:32:52;;;;;;;13.82;4.22;;;4.50;99.90;;;;;;5041118;28;20203;-81
2022/02/01 11:35:24;;;;;;;20.80;4.95;;;4.40;99.90;;;;;;5042213;28;20222;-82
2022/02/01 11:37:53;;;;;;;10.13;3.55;;;4.10;99.90;;;;;;5045223;28;20211;-82
2022/02/01 11:40:22;;;;;;;10.05;5.05;;;4.40;99.90;;;;;;5051822;28;20232;-81
2022/02/01 11:42:54;;;;;;;6.20;3.35;;;4.40;99.90;;;;;;5046359;28;20295;-82
2022/02/01 11:45:29;;;;;;;8.35;5.13;;;4.50;99.90;;;;;;5042830;28;20204;-81
2022/02/01 11:47:56;;;;;;;13.25;4.70;;;4.50;99.90;;;;;;5042001;28;20720;-82
2022/02/01 11:50:26;;;;;;;10.98;3.90;;;4.60;99.90;;;;;;5041753;28;20598;-82
2022/02/01 11:52:54;;;;;;;6.65;3.17;;;4.60;99.90;;;;;;5042312;28;20230;-82
2022/02/01 11:55:25;;;;;;;10.55;4.32;;;4.50;99.90;;;;;;5041766;28;20273;-81
2022/02/01 11:57:53;;;;;;;8.80;4.20;;;4.60;99.90;;;;;;5054828;28;20210;-80
2022/02/01 12:00:23;;;;;;;4.85;4.10;;;4.50;99.90;;;;;;5053854;28;20219;-80
2022/02/01 12:02:53;;;;;;;13.70;3.25;;;4.60;99.90;;;;;;5042730;28;20686;-81
2022/02/01 12:05:27;;;;;;;10.25;3.63;;;4.70;99.90;;;;;;5048848;28;20283;-81
2022/02/01 12:08:03;;;;;;;5.32;3.10;;;4.60;99.90;;;;;;5051897;28;20196;-80
2022/02/01 12:10:32;;;;;;;6.22;3.47;;;4.60;99.90;;;;;;5054253;28;20604;-81
2022/02/01 12:13:03;;;;;;;10.45;3.53;;;4.80;99.90;;;;;;5058423;28;20207;-81
2022/02/01 12:15:32;;;;;;;9.02;3.78;;;4.70;99.90;;;;;;5057563;28;20222;-82
2022/02/01 12:18:27;;;;;;;12.75;4.18;;;4.60;99.90;;;;;;5051745;28;20605;-82
2022/02/01 12:21:07;;;;;;;10.02;4.97;;;4.80;99.90;;;;;;5047889;28;20258;-81
2022/02/01 12:23:35;;;;;;;12.13;4.10;;;4.90;99.90;;;;;;5044988;28;20670;-82
2022/02/01 12:26:01;;;;;;;9.02;3.45;;;4.90;99.90;;;;;;5044390;28;20200;-81
2022/02/01 12:28:30;;;;;;;9.35;3.47;;;4.80;99.90;;;;;;5044001;28;20258;-81
2022/02/01 12:31:07;;;;;;;4.35;3.00;;;4.70;99.90;;;;;;5045744;28;20265;-81
2022/02/01 12:33:40;;;;;;;9.82;5.57;;;4.80;99.90;;;;;;5047680;28;20191;-81
2022/02/01 12:36:08;;;;;;;6.55;4.03;;;4.70;99.90;;;;;;5045693;28;20188;-82
2022/02/01 12:38:35;;;;;;;13.00;3.95;;;4.70;99.90;;;;;;5045765;28;20208;-82
2022/02/01 12:41:12;;;;;;;5.32;3.10;;;4.60;99.90;;;;;;5045205;28;20227;-82
2022/02/01 12:43:56;;;;;;;10.43;3.55;;;4.70;99.90;;;;;;5045729;28;20218;-81
2022/02/01 12:46:33;;;;;;;6.80;3.03;;;4.60;99.90;;;;;;5045215;28;20187;-82
2022/02/01 12:49:01;;;;;;;13.98;3.20;;;4.60;99.90;;;;;;5047360;28;20242;-82
2022/02/01 12:51:39;;;;;;;7.20;3.20;;;4.70;99.90;;;;;;5047079;28;20223;-82
2022/02/01 12:54:05;;;;;;;9.57;3.78;;;4.70;99.90;;;;;;5045578;28;20556;-81
2022/02/01 12:56:32;;;;;;;11.27;3.55;;;4.60;99.90;;;;;;5048374;28;20207;-81
2022/02/01 12:59:01;;;;;;;12.68;3.45;;;4.60;99.90;;;;;;5045647;28;20315;-82
2022/02/01 13:01:33;;;;;;;9.23;3.08;;;4.60;99.90;;;;;;5046194;28;20262;-82
2022/02/01 13:04:02;;;;;;;14.32;6.30;;;4.60;99.90;;;;;;5045905;28;20232;-82
2022/02/01 13:06:32;;;;;;;6.53;3.90;;;4.60;99.90;;;;;;5046178;28;20238;-81
2022/02/01 13:14:44;;;;;;;7.38;3.55;;;4.40;99.90;;;;;;5043380;28;20187;-81
2022/02/01 13:17:36;;;;;;;9.25;2.83;;;4.30;99.90;;;;;;5042240;28;20275;-81
2022/02/01 13:20:17;;;;;;;6.65;2.90;;;4.20;99.90;;;;;;5043885;28;20714;-81
2022/02/01 13:23:05;;;;;;;11.77;3.10;;;4.20;99.90;;;;;;5045848;28;20194;-81
2022/02/01 13:25:35;;;;;;;11.68;4.72;;;4.20;99.90;;;;;;5041525;28;20227;-82
2022/02/01 13:28:04;;;;;;;9.73;2.85;;;4.20;99.90;;;;;;5046750;28;20351;-81
2022/02/01 13:30:34;;;;;;;10.38;3.40;;;4.10;99.90;;;;;;5044120;28;20662;-81
2022/02/01 13:33:10;;;;;;;7.68;3.15;;;4.20;99.90;;;;;;5045113;28;20285;-81
2022/02/01 13:35:54;;;;;;;8.65;4.43;;;4.20;99.90;;;;;;5051069;28;20187;-79
2022/02/01 13:38:22;;;;;;;4.88;3.33;;;4.10;99.90;;;;;;5054490;28;20184;-80
2022/02/01 13:40:50;;;;;;;6.88;3.17;;;4.10;99.90;;;;;;5043896;28;20282;-81
2022/02/01 13:43:19;;;;;;;6.55;2.92;;;4.10;99.90;;;;;;5047817;28;20250;-80
2022/02/01 13:45:45;;;;;;;5.85;3.35;;;4.10;99.90;;;;;;5056825;28;20208;-80
2022/02/01 13:48:19;;;;;;;12.38;3.90;;;4.20;99.90;;;;;;5057011;28;20199;-80
2022/02/01 13:50:47;;;;;;;9.00;2.95;;;4.10;99.90;;;;;;5055140;28;20224;-80
2022/02/01 13:53:17;;;;;;;7.78;2.80;;;4.10;99.90;;;;;;5056726;28;20290;-80
2022/02/01 13:55:44;;;;;;;8.18;3.63;;;4.00;99.90;;;;;;5057289;28;20195;-80
2022/02/01 13:58:16;;;;;;;6.43;4.20;;;4.00;99.90;;;;;;5056121;28;20211;-80
2022/02/01 14:00:46;;;;;;;9.93;4.80;;;3.90;99.90;;;;;;5056611;28;20223;-81
2022/02/01 14:03:23;;;;;;;8.48;3.65;;;3.80;99.90;;;;;;5045667;28;20208;-80
2022/02/01 14:06:23;;;;;;;5.70;4.30;;;3.70;99.90;;;;;;5055465;28;20227;-80